Terminal Aerodrome Forecast
Issued by NWS

Current Version | Previous Version | Graphics & Text | Print | Product List | Glossary Off
Versions: 1 2 3 4 5 6 7 8 9 10 11 12 13 14

000
FTUS41 KPBZ 050532
TAFMGW
TAF
KMGW 050532Z 0506/0606 VRB03KT P6SM BKN060 BKN250
     FM051600 28008G15KT P6SM SCT050
     FM060100 VRB03KT P6SM SCT250=

USA.gov is the U.S. government's official web portal to all federal, state and local government web resources and services.